createdAt,value
2018-03-23T00:00:39.968Z,3
2018-03-23T00:03:39.906Z,3
2018-03-23T00:06:39.917Z,2.9
2018-03-23T00:09:39.888Z,4
2018-03-23T00:12:39.918Z,2.5
2018-03-23T00:15:39.920Z,2.6
2018-03-23T00:18:39.924Z,3.9
2018-03-23T00:21:39.910Z,2.7
2018-03-23T00:24:39.881Z,2.8
2018-03-23T00:27:39.904Z,2.9
2018-03-23T00:30:39.967Z,2.7
2018-03-23T00:33:39.932Z,2.6
2018-03-23T00:36:39.911Z,2.8
2018-03-23T00:39:39.863Z,2.6
2018-03-23T00:42:39.911Z,2.6
2018-03-23T00:45:39.888Z,2.7
2018-03-23T00:48:39.963Z,2.7
2018-03-23T00:51:39.916Z,2.7
2018-03-23T00:54:39.895Z,2.8
2018-03-23T00:57:39.881Z,2.8
2018-03-23T01:00:39.902Z,3.4
2018-03-23T01:03:39.908Z,2.8
2018-03-23T01:06:39.910Z,2.8
2018-03-23T01:09:39.890Z,2.7
2018-03-23T01:12:39.911Z,2.7
2018-03-23T01:15:39.850Z,2.8
2018-03-23T01:18:39.877Z,3.1
2018-03-23T01:21:39.889Z,3.2
2018-03-23T01:24:39.874Z,2.9
2018-03-23T01:27:39.935Z,2.8
2018-03-23T01:30:39.861Z,3.3
2018-03-23T01:33:39.899Z,2.9
2018-03-23T01:36:39.857Z,3
2018-03-23T01:39:39.911Z,3
2018-03-23T01:42:39.933Z,3.1
2018-03-23T01:45:39.878Z,3.1
2018-03-23T01:48:39.852Z,3.2
2018-03-23T01:51:39.893Z,3.1
2018-03-23T01:54:39.850Z,3.2
2018-03-23T01:57:39.918Z,3.2
2018-03-23T02:00:39.903Z,3.2
2018-03-23T02:03:39.855Z,3.4
2018-03-23T02:06:39.935Z,3.1
2018-03-23T02:09:39.853Z,3.1
2018-03-23T02:12:39.858Z,3.1
2018-03-23T02:15:39.968Z,3.2
2018-03-23T02:18:39.863Z,3.3
2018-03-23T02:21:39.868Z,3.2
2018-03-23T02:24:39.855Z,3.3
2018-03-23T02:27:39.874Z,3.1
2018-03-23T02:30:39.943Z,3
2018-03-23T02:33:39.911Z,3.4
2018-03-23T02:36:39.870Z,3.1
2018-03-23T02:39:39.891Z,3.2
2018-03-23T02:42:39.894Z,3.2
2018-03-23T02:45:39.874Z,3.1
2018-03-23T02:48:39.904Z,3.1
2018-03-23T02:51:39.904Z,3
2018-03-23T02:54:39.891Z,3.2
2018-03-23T02:57:39.869Z,3.1
2018-03-23T03:00:39.853Z,3.3
2018-03-23T03:03:39.834Z,3.1
2018-03-23T03:06:39.917Z,3.3
2018-03-23T03:09:39.874Z,3.2
2018-03-23T03:12:39.863Z,3.3
2018-03-23T03:15:39.924Z,3.2
2018-03-23T03:18:39.856Z,3.2
2018-03-23T03:21:39.708Z,3.2
2018-03-23T03:24:39.856Z,3.1
2018-03-23T03:27:39.875Z,3.1
2018-03-23T03:30:39.876Z,3.3
2018-03-23T03:33:39.822Z,3.2
2018-03-23T03:36:39.803Z,3.2
2018-03-23T03:39:39.827Z,3.2
2018-03-23T03:42:39.830Z,3.2
2018-03-23T03:45:39.854Z,3.2
2018-03-23T03:48:39.821Z,3.3
2018-03-23T03:51:39.813Z,3.3
2018-03-23T03:54:39.842Z,3
2018-03-23T03:57:39.831Z,3.1
2018-03-23T04:00:39.832Z,2.9
2018-03-23T04:03:39.836Z,2.9
2018-03-23T04:06:39.830Z,2.9
2018-03-23T04:09:39.822Z,3
2018-03-23T04:12:39.877Z,2.9
2018-03-23T04:15:39.852Z,2.9
2018-03-23T04:18:39.816Z,3.1
2018-03-23T04:21:39.828Z,2.8
2018-03-23T04:24:39.810Z,3.1
2018-03-23T04:27:39.801Z,2.9
2018-03-23T04:30:39.852Z,2.6
2018-03-23T04:33:39.863Z,2.7
2018-03-23T04:36:39.862Z,2.8
2018-03-23T04:39:40.208Z,2.6
2018-03-23T04:42:39.838Z,2.4
2018-03-23T04:45:39.816Z,3
2018-03-23T04:48:39.794Z,2.7
2018-03-23T04:51:39.794Z,2.7
2018-03-23T04:54:39.831Z,2.5
2018-03-23T04:57:39.875Z,2.6
2018-03-23T05:00:39.800Z,2.6
2018-03-23T05:03:39.813Z,2.4
2018-03-23T05:06:39.849Z,2.5
2018-03-23T05:09:39.812Z,2.4
2018-03-23T05:12:39.858Z,2.4
2018-03-23T05:15:39.837Z,2.4
2018-03-23T05:18:39.793Z,2.3
2018-03-23T05:21:39.829Z,2.3
2018-03-23T05:24:39.801Z,2.4
2018-03-23T05:27:39.824Z,2.3
2018-03-23T05:30:39.816Z,2.1
2018-03-23T05:33:39.818Z,2.2
2018-03-23T05:36:39.836Z,2.4
2018-03-23T05:39:39.790Z,2.2
2018-03-23T05:42:39.788Z,2.2
2018-03-23T05:45:39.853Z,2.2
2018-03-23T05:48:39.790Z,2
2018-03-23T05:51:39.797Z,2
2018-03-23T05:54:39.782Z,2.3
2018-03-23T05:57:39.784Z,2.3
2018-03-23T06:00:39.808Z,2.3
2018-03-23T06:03:39.818Z,2.2
2018-03-23T06:06:39.739Z,1.9
2018-03-23T06:09:39.801Z,2.1
2018-03-23T06:12:39.769Z,2
2018-03-23T06:15:39.790Z,2.2
2018-03-23T06:18:39.792Z,2.3
2018-03-23T06:21:39.805Z,2
2018-03-23T06:24:39.773Z,1.9
2018-03-23T06:27:39.807Z,2.1
2018-03-23T06:30:39.768Z,2.1
2018-03-23T06:33:39.774Z,2.1
2018-03-23T06:36:39.754Z,2
2018-03-23T06:39:39.778Z,2
2018-03-23T06:42:39.839Z,2.1
2018-03-23T06:45:39.790Z,2.2
2018-03-23T06:48:39.796Z,1.9
2018-03-23T06:51:39.750Z,1.9
2018-03-23T06:54:39.772Z,2.1
2018-03-23T06:57:39.758Z,1.9
2018-03-23T07:00:39.785Z,1.9
2018-03-23T07:03:39.755Z,1.9
2018-03-23T07:06:39.772Z,2
2018-03-23T07:09:39.779Z,1.9
2018-03-23T07:12:39.781Z,2.2
2018-03-23T07:15:39.778Z,9.3
2018-03-23T07:18:39.837Z,6.8
2018-03-23T07:21:39.823Z,7.7
2018-03-23T07:24:39.761Z,7.6
2018-03-23T07:27:39.773Z,8.1
2018-03-23T07:30:39.777Z,9.4
2018-03-23T07:33:39.776Z,7
2018-03-23T07:36:39.764Z,8.7
2018-03-23T07:39:39.763Z,5.4
2018-03-23T07:42:39.791Z,10.4
2018-03-23T07:45:39.757Z,4.6
2018-03-23T07:48:39.777Z,3.7
2018-03-23T07:51:39.783Z,5.3
2018-03-23T07:54:39.762Z,5
2018-03-23T07:57:39.765Z,5.9
2018-03-23T08:00:39.766Z,4.2
2018-03-23T08:03:39.721Z,4.2
2018-03-23T08:06:39.751Z,8.3
2018-03-23T08:09:39.734Z,3.6
2018-03-23T08:12:39.759Z,3.8
2018-03-23T08:15:39.738Z,4.4
2018-03-23T08:18:39.865Z,4.3
2018-03-23T08:21:39.774Z,2.5
2018-03-23T08:24:39.796Z,4.2
2018-03-23T08:27:39.776Z,2.2
2018-03-23T08:30:39.726Z,3
2018-03-23T08:33:39.730Z,4.4
2018-03-23T08:36:39.759Z,2.3
2018-03-23T08:39:39.774Z,2.3
2018-03-23T08:42:39.776Z,3.4
2018-03-23T08:45:39.752Z,2.1
2018-03-23T08:48:39.741Z,3
2018-03-23T08:51:39.724Z,2.7
2018-03-23T08:54:39.704Z,2.4
2018-03-23T08:57:39.838Z,3.4
2018-03-23T09:00:39.750Z,4
2018-03-23T09:03:39.748Z,2.6
2018-03-23T09:06:39.724Z,2.6
2018-03-23T09:09:40.244Z,2.3
2018-03-23T09:12:39.718Z,2.4
2018-03-23T09:15:39.730Z,2.2
2018-03-23T09:18:39.698Z,3.4
2018-03-23T09:21:39.719Z,2.1
2018-03-23T09:24:39.748Z,2.4
2018-03-23T09:27:39.716Z,2.3
2018-03-23T09:30:39.734Z,2.5
2018-03-23T09:33:39.737Z,2.2
2018-03-23T09:36:39.738Z,3.1
2018-03-23T09:39:39.809Z,2.1
2018-03-23T09:42:39.739Z,2.1
2018-03-23T09:45:39.690Z,2.5
2018-03-23T09:48:40.092Z,2.7
2018-03-23T09:51:39.746Z,2
2018-03-23T09:54:39.712Z,2
2018-03-23T09:57:39.760Z,2.1
2018-03-23T10:00:39.709Z,1.9
2018-03-23T10:03:40.004Z,2.2
2018-03-23T10:06:39.674Z,2
2018-03-23T10:09:39.708Z,2.1
2018-03-23T10:12:39.734Z,2.1
2018-03-23T10:15:39.724Z,2.5
2018-03-23T10:18:39.672Z,2.2
2018-03-23T10:21:40.173Z,2.1
2018-03-23T10:24:39.713Z,2.3
2018-03-23T10:27:39.716Z,2.1
2018-03-23T10:30:39.678Z,1.9
2018-03-23T10:33:39.858Z,2
2018-03-23T10:36:39.693Z,1.9
2018-03-23T10:39:39.738Z,2.2
2018-03-23T10:42:39.693Z,2.4
2018-03-23T10:45:39.718Z,1.9
2018-03-23T10:48:39.678Z,1.9
2018-03-23T10:51:39.714Z,1.9
2018-03-23T10:54:39.704Z,2.2
2018-03-23T10:57:39.662Z,2
2018-03-23T11:00:39.739Z,1.9
2018-03-23T11:03:39.734Z,1.8
2018-03-23T11:06:39.681Z,2
2018-03-23T11:09:39.726Z,2.3
2018-03-23T11:12:39.689Z,1.9
2018-03-23T11:15:39.671Z,1.8
2018-03-23T11:18:39.720Z,1.8
2018-03-23T11:21:39.664Z,1.9
2018-03-23T11:24:39.663Z,2.4
2018-03-23T11:27:39.652Z,1.9
2018-03-23T11:30:39.677Z,1.8
2018-03-23T11:33:39.680Z,2
2018-03-23T11:36:39.668Z,1.7
2018-03-23T11:39:39.672Z,1.9
2018-03-23T11:42:39.675Z,2.1
2018-03-23T11:45:39.667Z,1.8
2018-03-23T11:48:39.673Z,2.3
2018-03-23T11:51:39.667Z,3
2018-03-23T11:54:39.668Z,2.2
2018-03-23T11:57:39.724Z,3.3
2018-03-23T12:00:39.662Z,2.8
2018-03-23T12:03:39.650Z,3.5
2018-03-23T12:06:39.692Z,4.4
2018-03-23T12:09:39.675Z,3.4
2018-03-23T12:12:39.667Z,2.6
2018-03-23T12:15:39.707Z,1.9
2018-03-23T12:18:39.850Z,2.1
2018-03-23T12:21:39.725Z,1.9
2018-03-23T12:24:39.703Z,3.1
2018-03-23T12:27:39.672Z,2.3
2018-03-23T12:30:39.697Z,2.9
2018-03-23T12:33:39.673Z,2.8
2018-03-23T12:36:39.662Z,3.7
2018-03-23T12:39:39.664Z,2.2
2018-03-23T12:42:39.652Z,1.8
2018-03-23T12:45:40.233Z,2.2
2018-03-23T12:48:39.645Z,2.7
2018-03-23T12:51:39.653Z,1.9
2018-03-23T12:54:39.654Z,1.7
2018-03-23T12:57:39.653Z,2.8
2018-03-23T13:00:39.654Z,1.8
2018-03-23T13:03:39.815Z,1.7
2018-03-23T13:06:39.638Z,2
2018-03-23T13:09:39.669Z,1.7
2018-03-23T13:12:39.664Z,1.9
2018-03-23T13:15:39.707Z,1.7
2018-03-23T13:18:39.642Z,1.6
2018-03-23T13:21:39.683Z,1.7
2018-03-23T13:24:39.624Z,1.8
2018-03-23T13:27:39.630Z,1.8
2018-03-23T13:30:39.629Z,1.8
2018-03-23T13:33:39.656Z,1.8
2018-03-23T13:36:39.642Z,1.7
2018-03-23T13:39:39.681Z,1.8
2018-03-23T13:42:39.677Z,1.7
2018-03-23T13:45:39.649Z,1.7
2018-03-23T13:48:39.672Z,2
2018-03-23T13:51:39.630Z,1.9
2018-03-23T13:54:39.642Z,1.7
2018-03-23T13:57:39.652Z,1.7
2018-03-23T14:00:39.646Z,2.5
2018-03-23T14:03:39.665Z,1.8
2018-03-23T14:06:39.643Z,1.6
2018-03-23T14:09:39.661Z,1.7
2018-03-23T14:12:39.639Z,1.7
2018-03-23T14:15:39.610Z,1.7
2018-03-23T14:18:39.676Z,1.7
2018-03-23T14:21:39.739Z,1.6
2018-03-23T14:24:39.613Z,1.9
2018-03-23T14:27:39.640Z,1.6
2018-03-23T14:30:39.622Z,1.7
2018-03-23T14:33:39.661Z,1.7
2018-03-23T14:36:39.707Z,1.7
2018-03-23T14:39:39.641Z,1.7
2018-03-23T14:42:39.682Z,1.7
2018-03-23T14:45:39.632Z,1.6
2018-03-23T14:48:39.707Z,1.7
2018-03-23T14:51:39.628Z,1.6
2018-03-23T14:54:39.632Z,1.7
2018-03-23T14:57:39.639Z,1.7
2018-03-23T15:00:39.680Z,1.7
2018-03-23T15:03:43.141Z,1.7
2018-03-23T15:06:39.690Z,1.7
2018-03-23T15:09:39.670Z,1.6
2018-03-23T15:12:39.603Z,1.7
2018-03-23T15:15:39.667Z,1.6
2018-03-23T15:18:39.629Z,1.8
2018-03-23T15:21:39.928Z,1.8
2018-03-23T15:24:39.583Z,1.6
2018-03-23T15:27:39.687Z,1.7
2018-03-23T15:30:39.620Z,1.6
2018-03-23T15:33:39.699Z,1.6
2018-03-23T15:36:39.701Z,1.7
2018-03-23T15:39:39.528Z,1.7
2018-03-23T15:42:39.573Z,1.6
2018-03-23T15:45:39.577Z,1.7
2018-03-23T15:48:39.683Z,1.6
2018-03-23T15:51:39.750Z,1.7
2018-03-23T15:54:39.567Z,1.7
2018-03-23T15:57:39.602Z,1.8
2018-03-23T16:00:39.578Z,1.7
2018-03-23T16:03:39.650Z,1.6
2018-03-23T16:06:39.619Z,1.5
2018-03-23T16:09:39.565Z,1.7
2018-03-23T16:12:39.596Z,1.7
2018-03-23T16:15:39.666Z,1.5
2018-03-23T16:18:39.591Z,1.6
2018-03-23T16:21:39.677Z,1.7
2018-03-23T16:24:39.553Z,1.6
2018-03-23T16:27:39.744Z,1.7
2018-03-23T16:30:39.631Z,1.7
2018-03-23T16:33:39.601Z,1.5
2018-03-23T16:36:39.614Z,1.6
2018-03-23T16:39:39.535Z,1.8
2018-03-23T16:42:39.952Z,1.6
2018-03-23T16:45:39.604Z,1.7
2018-03-23T16:48:39.608Z,1.6
2018-03-23T16:51:39.618Z,1.6
2018-03-23T16:54:39.541Z,1.7
2018-03-23T16:57:39.612Z,1.7
2018-03-23T17:00:39.556Z,1.6
2018-03-23T17:03:39.623Z,1.8
2018-03-23T17:06:39.562Z,1.6
2018-03-23T17:09:39.567Z,2.2
2018-03-23T17:12:39.838Z,2.5
2018-03-23T17:15:39.637Z,4.1
2018-03-23T17:18:39.575Z,1.8
2018-03-23T17:21:39.626Z,2.7
2018-03-23T17:24:39.522Z,2
2018-03-23T17:27:39.629Z,1.8
2018-03-23T17:30:39.573Z,3.1
2018-03-23T17:33:39.632Z,4.2
2018-03-23T17:36:39.562Z,3.2
2018-03-23T17:39:39.538Z,2.1
2018-03-23T17:42:39.600Z,3.5
2018-03-23T17:45:39.637Z,2
2018-03-23T17:48:39.569Z,2.2
2018-03-23T17:51:39.633Z,1.8
2018-03-23T17:54:39.539Z,1.7
2018-03-23T17:57:39.526Z,1.7
2018-03-23T18:00:39.575Z,2.2
2018-03-23T18:03:39.534Z,1.8
2018-03-23T18:06:39.544Z,1.7
2018-03-23T18:09:39.484Z,2.5
2018-03-23T18:12:39.635Z,2.3
2018-03-23T18:15:39.541Z,2.9
2018-03-23T18:18:39.620Z,2
2018-03-23T18:21:39.531Z,1.6
2018-03-23T18:24:39.553Z,1.7
2018-03-23T18:27:39.556Z,2.1
2018-03-23T18:30:39.626Z,1.7
2018-03-23T18:33:39.545Z,1.8
2018-03-23T18:36:39.624Z,5
2018-03-23T18:39:39.558Z,3.1
2018-03-23T18:42:39.628Z,2.9
2018-03-23T18:45:39.591Z,2
2018-03-23T18:48:39.602Z,1.9
2018-03-23T18:51:39.575Z,3.1
2018-03-23T18:54:39.501Z,2.2
2018-03-23T18:57:39.546Z,2.2
2018-03-23T19:00:39.612Z,2.8
2018-03-23T19:03:39.564Z,4.9
2018-03-23T19:06:39.645Z,4.1
2018-03-23T19:09:39.499Z,6.6
2018-03-23T19:12:39.717Z,4.3
2018-03-23T19:15:40.369Z,3.6
2018-03-23T19:18:39.587Z,5.4
2018-03-23T19:21:39.540Z,3.7
2018-03-23T19:24:39.653Z,3.6
2018-03-23T19:27:39.623Z,4.8
2018-03-23T19:30:39.495Z,4
2018-03-23T19:33:39.553Z,3.7
2018-03-23T19:36:39.493Z,5.2
2018-03-23T19:39:39.487Z,4
2018-03-23T19:42:39.493Z,4.2
2018-03-23T19:45:39.550Z,3.4
2018-03-23T19:48:39.528Z,7.4
2018-03-23T19:51:39.553Z,3.7
2018-03-23T19:54:39.468Z,5.3
2018-03-23T19:57:39.568Z,4
2018-03-23T20:00:39.499Z,4.1
2018-03-23T20:03:39.588Z,4.1
2018-03-23T20:06:39.554Z,4.2
2018-03-23T20:09:39.564Z,3.6
2018-03-23T20:12:39.935Z,4.1
2018-03-23T20:15:39.565Z,6.4
2018-03-23T20:18:39.535Z,5.4
2018-03-23T20:21:39.575Z,6.3
2018-03-23T20:24:39.838Z,6.1
2018-03-23T20:27:39.573Z,5.2
2018-03-23T20:30:39.508Z,4.8
2018-03-23T20:33:39.567Z,4.4
2018-03-23T20:36:39.532Z,4.4
2018-03-23T20:39:39.478Z,6.3
2018-03-23T20:42:39.535Z,3.8
2018-03-23T20:45:39.455Z,4.8
2018-03-23T20:48:39.578Z,4.4
2018-03-23T20:51:39.467Z,4.2
2018-03-23T20:54:39.458Z,4.4
2018-03-23T20:57:39.547Z,3.6
2018-03-23T21:00:39.519Z,4.2
2018-03-23T21:03:39.484Z,4.4
2018-03-23T21:06:39.545Z,4.2
2018-03-23T21:09:39.852Z,5.1
2018-03-23T21:12:39.611Z,4.5
2018-03-23T21:15:39.443Z,4.7
2018-03-23T21:18:39.558Z,4
2018-03-23T21:21:39.583Z,4.7
2018-03-23T21:24:39.502Z,5.1
2018-03-23T21:27:39.481Z,4
2018-03-23T21:30:39.546Z,4
2018-03-23T21:33:39.538Z,4.5
2018-03-23T21:36:39.537Z,4.2
2018-03-23T21:39:39.439Z,4.9
2018-03-23T21:42:39.583Z,4.8
2018-03-23T21:45:39.435Z,4.5
2018-03-23T21:48:39.560Z,4.9
2018-03-23T21:51:39.501Z,4.3
2018-03-23T21:54:39.453Z,5.2
2018-03-23T21:57:39.488Z,5.2
2018-03-23T22:00:39.436Z,4.4
2018-03-23T22:03:39.437Z,4.3
2018-03-23T22:06:39.417Z,4.9
2018-03-23T22:09:39.452Z,4.4
2018-03-23T22:12:39.430Z,4.3
2018-03-23T22:15:39.442Z,4.4
2018-03-23T22:18:39.428Z,5.2
2018-03-23T22:21:39.433Z,4.3
2018-03-23T22:24:39.414Z,5.5
2018-03-23T22:27:39.475Z,4.1
2018-03-23T22:30:39.424Z,5.4
2018-03-23T22:33:39.409Z,4.9
2018-03-23T22:36:39.425Z,5.1
2018-03-23T22:39:39.446Z,4.7
2018-03-23T22:42:39.443Z,4.6
2018-03-23T22:45:39.476Z,4.6
2018-03-23T22:48:39.470Z,4.7
2018-03-23T22:51:39.445Z,4.8
2018-03-23T22:54:39.467Z,4.8
2018-03-23T22:57:39.454Z,4.7
2018-03-23T23:00:39.461Z,4.4
2018-03-23T23:03:39.460Z,4.6
2018-03-23T23:06:39.427Z,4.5
2018-03-23T23:09:39.423Z,4.7
2018-03-23T23:12:39.425Z,4.7
2018-03-23T23:15:39.441Z,4.5
2018-03-23T23:18:39.530Z,4.2
2018-03-23T23:21:39.416Z,4.8
2018-03-23T23:24:39.402Z,4.8
2018-03-23T23:27:39.406Z,4.6
2018-03-23T23:30:39.399Z,4.4
2018-03-23T23:33:39.825Z,4.7
2018-03-23T23:36:39.482Z,4.8
2018-03-23T23:39:39.440Z,4.9
2018-03-23T23:42:39.407Z,5.8
2018-03-23T23:45:39.403Z,4.8
2018-03-23T23:48:39.400Z,4.6
2018-03-23T23:51:39.430Z,4.9
2018-03-23T23:54:39.406Z,4.6
2018-03-23T23:57:39.421Z,4.4
